sensor_id;sensor_type;location;lat;lon;timestamp;pressure;altitude;pressure_sealevel;temperature;humidity
6565;BME280;3316;44.118;27.258;2024-03-02T00:00:57;101002.84;;;8.89;100.00
6565;BME280;3316;44.118;27.258;2024-03-02T00:03:22;101023.00;;;9.01;100.00
6565;BME280;3316;44.118;27.258;2024-03-02T00:05:51;101041.38;;;8.99;100.00
6565;BME280;3316;44.118;27.258;2024-03-02T00:08:23;101043.06;;;8.88;100.00
6565;BME280;3316;44.118;27.258;2024-03-02T00:10:57;101022.09;;;8.83;100.00
6565;BME280;3316;44.118;27.258;2024-03-02T00:13:22;100992.31;;;8.71;100.00
6565;BME280;3316;44.118;27.258;2024-03-02T00:15:52;101020.38;;;8.93;100.00
6565;BME280;3316;44.118;27.258;2024-03-02T00:18:34;101009.84;;;8.79;100.00
6565;BME280;3316;44.118;27.258;2024-03-02T00:21:00;101024.72;;;8.85;100.00
6565;BME280;3316;44.118;27.258;2024-03-02T00:23:30;101019.47;;;8.83;100.00
6565;BME280;3316;44.118;27.258;2024-03-02T00:25:59;100997.53;;;8.66;100.00
6565;BME280;3316;44.118;27.258;2024-03-02T00:28:27;101015.94;;;8.75;100.00
6565;BME280;3316;44.118;27.258;2024-03-02T00:31:06;100994.06;;;8.66;100.00
6565;BME280;3316;44.118;27.258;2024-03-02T00:33:42;101008.06;;;8.68;100.00
6565;BME280;3316;44.118;27.258;2024-03-02T00:36:09;100999.28;;;8.69;100.00
6565;BME280;3316;44.118;27.258;2024-03-02T00:38:44;101011.59;;;8.94;100.00
6565;BME280;3316;44.118;27.258;2024-03-02T00:41:36;100984.41;;;8.66;100.00
6565;BME280;3316;44.118;27.258;2024-03-02T00:44:02;101028.22;;;8.91;100.00
6565;BME280;3316;44.118;27.258;2024-03-02T00:46:36;100999.31;;;8.76;100.00
6565;BME280;3316;44.118;27.258;2024-03-02T00:49:03;101014.25;;;8.91;100.00
6565;BME280;3316;44.118;27.258;2024-03-02T00:51:31;101015.13;;;8.93;100.00
6565;BME280;3316;44.118;27.258;2024-03-02T00:54:03;101013.34;;;8.83;100.00
6565;BME280;3316;44.118;27.258;2024-03-02T00:56:29;101001.94;;;8.85;100.00
6565;BME280;3316;44.118;27.258;2024-03-02T00:58:55;100994.97;;;8.84;100.00
6565;BME280;3316;44.118;27.258;2024-03-02T01:01:21;100974.81;;;8.73;100.00
6565;BME280;3316;44.118;27.258;2024-03-02T01:03:46;100973.97;;;8.83;100.00
6565;BME280;3316;44.118;27.258;2024-03-02T01:06:12;100973.06;;;8.78;100.00
6565;BME280;3316;44.118;27.258;2024-03-02T01:08:39;100936.31;;;8.58;100.00
6565;BME280;3316;44.118;27.258;2024-03-02T01:11:04;100957.34;;;8.73;100.00
6565;BME280;3316;44.118;27.258;2024-03-02T01:13:30;100947.72;;;8.71;100.00
6565;BME280;3316;44.118;27.258;2024-03-02T01:15:56;100938.94;;;8.54;100.00
6565;BME280;3316;44.118;27.258;2024-03-02T01:18:22;100968.66;;;8.57;100.00
6565;BME280;3316;44.118;27.258;2024-03-02T01:20:49;100973.94;;;8.65;100.00
6565;BME280;3316;44.118;27.258;2024-03-02T01:23:19;100922.28;;;8.38;100.00
6565;BME280;3316;44.118;27.258;2024-03-02T01:25:46;100973.94;;;8.71;100.00
6565;BME280;3316;44.118;27.258;2024-03-02T01:28:12;100978.31;;;8.75;100.00
6565;BME280;3316;44.118;27.258;2024-03-02T01:30:38;100981.84;;;8.75;100.00
6565;BME280;3316;44.118;27.258;2024-03-02T01:33:03;100977.47;;;8.71;100.00
6565;BME280;3316;44.118;27.258;2024-03-02T01:35:31;100950.31;;;8.57;100.00
6565;BME280;3316;44.118;27.258;2024-03-02T01:37:56;100946.84;;;8.66;100.00
6565;BME280;3316;44.118;27.258;2024-03-02T01:40:22;100914.44;;;8.44;100.00
6565;BME280;3316;44.118;27.258;2024-03-02T01:42:51;100885.56;;;8.35;100.00
6565;BME280;3316;44.118;27.258;2024-03-02T01:45:17;100959.06;;;8.68;100.00
6565;BME280;3316;44.118;27.258;2024-03-02T01:47:42;100941.56;;;8.57;100.00
6565;BME280;3316;44.118;27.258;2024-03-02T01:50:08;100945.03;;;8.51;100.00
6565;BME280;3316;44.118;27.258;2024-03-02T01:52:36;100932.75;;;8.43;100.00
6565;BME280;3316;44.118;27.258;2024-03-02T01:55:02;100925.75;;;8.39;100.00
6565;BME280;3316;44.118;27.258;2024-03-02T01:57:29;100933.63;;;8.33;100.00
6565;BME280;3316;44.118;27.258;2024-03-02T01:59:55;100940.59;;;8.34;100.00
6565;BME280;3316;44.118;27.258;2024-03-02T02:02:20;100874.03;;;8.00;100.00
6565;BME280;3316;44.118;27.258;2024-03-02T02:04:46;100903.81;;;8.16;100.00
6565;BME280;3316;44.118;27.258;2024-03-02T02:07:11;100867.06;;;7.97;100.00
6565;BME280;3316;44.118;27.258;2024-03-02T02:09:37;100876.69;;;8.04;100.00
6565;BME280;3316;44.118;27.258;2024-03-02T02:12:02;100934.50;;;8.29;100.00
6565;BME280;3316;44.118;27.258;2024-03-02T02:14:30;100939.69;;;8.26;100.00
6565;BME280;3316;44.118;27.258;2024-03-02T02:16:55;100912.56;;;8.19;100.00
6565;BME280;3316;44.118;27.258;2024-03-02T02:19:20;100931.00;;;8.33;100.00
6565;BME280;3316;44.118;27.258;2024-03-02T02:21:46;100925.75;;;8.36;100.00
6565;BME280;3316;44.118;27.258;2024-03-02T02:24:11;100914.31;;;8.20;100.00
6565;BME280;3316;44.118;27.258;2024-03-02T02:26:38;100908.19;;;8.17;100.00
6565;BME280;3316;44.118;27.258;2024-03-02T02:29:04;100853.03;;;7.86;100.00
6565;BME280;3316;44.118;27.258;2024-03-02T02:31:39;100872.34;;;8.03;100.00
6565;BME280;3316;44.118;27.258;2024-03-02T02:34:05;100882.78;;;7.99;100.00
6565;BME280;3316;44.118;27.258;2024-03-02T02:36:34;100914.31;;;8.17;100.00
6565;BME280;3316;44.118;27.258;2024-03-02T02:39:03;100912.56;;;8.22;100.00
6565;BME280;3316;44.118;27.258;2024-03-02T02:41:30;100902.06;;;8.18;100.00
6565;BME280;3316;44.118;27.258;2024-03-02T02:43:56;100930.13;;;8.35;100.00
6565;BME280;3316;44.118;27.258;2024-03-02T02:46:21;100909.16;;;8.35;100.00
6565;BME280;3316;44.118;27.258;2024-03-02T02:48:47;100915.28;;;8.40;100.00
6565;BME280;3316;44.118;27.258;2024-03-02T02:51:12;100925.78;;;8.40;100.00
6565;BME280;3316;44.118;27.258;2024-03-02T02:53:38;100920.50;;;8.39;100.00
6565;BME280;3316;44.118;27.258;2024-03-02T02:56:06;100910.03;;;8.39;100.00
6565;BME280;3316;44.118;27.258;2024-03-02T02:58:31;100912.72;;;8.52;100.00
6565;BME280;3316;44.118;27.258;2024-03-02T03:00:57;100855.75;;;8.13;100.00
6565;BME280;3316;44.118;27.258;2024-03-02T03:03:22;100901.28;;;8.35;100.00
6565;BME280;3316;44.118;27.258;2024-03-02T03:05:48;100880.25;;;8.22;100.00
6565;BME280;3316;44.118;27.258;2024-03-02T03:08:14;100903.91;;;8.32;100.00
6565;BME280;3316;44.118;27.258;2024-03-02T03:10:41;100906.53;;;8.31;100.00
6565;BME280;3316;44.118;27.258;2024-03-02T03:13:06;100898.59;;;8.20;100.00
6565;BME280;3316;44.118;27.258;2024-03-02T03:15:34;100902.94;;;8.15;100.00
6565;BME280;3316;44.118;27.258;2024-03-02T03:18:02;100898.56;;;8.11;100.00
6565;BME280;3316;44.118;27.258;2024-03-02T03:20:29;100906.44;;;8.14;100.00
6565;BME280;3316;44.118;27.258;2024-03-02T03:22:54;100913.44;;;8.21;100.00
6565;BME280;3316;44.118;27.258;2024-03-02T03:25:19;100911.69;;;8.19;100.00
6565;BME280;3316;44.118;27.258;2024-03-02T03:27:45;100898.53;;;8.09;100.00
6565;BME280;3316;44.118;27.258;2024-03-02T03:30:11;100909.94;;;8.22;100.00
6565;BME280;3316;44.118;27.258;2024-03-02T03:32:37;100901.19;;;8.16;100.00
6565;BME280;3316;44.118;27.258;2024-03-02T03:35:03;100905.59;;;8.24;100.00
6565;BME280;3316;44.118;27.258;2024-03-02T03:37:29;100910.91;;;8.29;100.00
6565;BME280;3316;44.118;27.258;2024-03-02T03:40:04;100918.75;;;8.29;100.00
6565;BME280;3316;44.118;27.258;2024-03-02T03:42:37;100928.38;;;8.34;100.00
6565;BME280;3316;44.118;27.258;2024-03-02T03:45:03;100901.25;;;8.28;100.00
6565;BME280;3316;44.118;27.258;2024-03-02T03:47:31;100916.13;;;8.29;100.00
6565;BME280;3316;44.118;27.258;2024-03-02T03:49:56;100925.75;;;8.37;100.00
6565;BME280;3316;44.118;27.258;2024-03-02T03:52:23;100929.22;;;8.26;100.00
6565;BME280;3316;44.118;27.258;2024-03-02T03:54:48;100923.13;;;8.31;100.00
6565;BME280;3316;44.118;27.258;2024-03-02T03:57:14;100908.22;;;8.23;100.00
6565;BME280;3316;44.118;27.258;2024-03-02T03:59:39;100901.28;;;8.25;100.00
6565;BME280;3316;44.118;27.258;2024-03-02T04:02:04;100924.00;;;8.41;100.00
6565;BME280;3316;44.118;27.258;2024-03-02T04:04:30;100892.47;;;8.17;100.00
6565;BME280;3316;44.118;27.258;2024-03-02T04:06:55;100903.03;;;8.30;100.00
6565;BME280;3316;44.118;27.258;2024-03-02T04:09:21;100922.31;;;8.46;100.00
6565;BME280;3316;44.118;27.258;2024-03-02T04:11:46;100916.19;;;8.50;100.00
6565;BME280;3316;44.118;27.258;2024-03-02T04:14:11;100912.66;;;8.36;100.00
6565;BME280;3316;44.118;27.258;2024-03-02T04:16:38;100905.66;;;8.33;100.00
6565;BME280;3316;44.118;27.258;2024-03-02T04:19:04;100910.00;;;8.31;100.00
6565;BME280;3316;44.118;27.258;2024-03-02T04:21:29;100903.88;;;8.26;100.00
6565;BME280;3316;44.118;27.258;2024-03-02T04:23:55;100911.75;;;8.28;100.00
6565;BME280;3316;44.118;27.258;2024-03-02T04:26:25;100892.44;;;8.10;100.00
6565;BME280;3316;44.118;27.258;2024-03-02T04:28:51;100909.94;;;8.18;100.00
6565;BME280;3316;44.118;27.258;2024-03-02T04:31:17;100896.81;;;8.13;100.00
6565;BME280;3316;44.118;27.258;2024-03-02T04:33:42;100913.44;;;8.18;100.00
6565;BME280;3316;44.118;27.258;2024-03-02T04:36:08;100916.09;;;8.23;100.00
6565;BME280;3316;44.118;27.258;2024-03-02T04:38:35;100922.22;;;8.28;100.00
6565;BME280;3316;44.118;27.258;2024-03-02T04:41:00;100914.31;;;8.20;100.00
6565;BME280;3316;44.118;27.258;2024-03-02T04:43:26;100909.03;;;8.13;100.00
6565;BME280;3316;44.118;27.258;2024-03-02T04:45:51;100886.25;;;7.96;100.00
6565;BME280;3316;44.118;27.258;2024-03-02T04:48:17;100917.75;;;8.11;100.00
6565;BME280;3316;44.118;27.258;2024-03-02T04:50:42;100884.50;;;7.92;100.00
6565;BME280;3316;44.118;27.258;2024-03-02T04:53:07;100913.38;;;8.06;100.00
6565;BME280;3316;44.118;27.258;2024-03-02T04:55:33;100909.03;;;8.03;100.00
6565;BME280;3316;44.118;27.258;2024-03-02T04:58:05;100898.53;;;8.03;100.00
6565;BME280;3316;44.118;27.258;2024-03-02T05:00:31;100928.25;;;8.10;100.00
6565;BME280;3316;44.118;27.258;2024-03-02T05:02:57;100930.00;;;8.16;100.00
6565;BME280;3316;44.118;27.258;2024-03-02T05:05:22;100927.38;;;8.16;100.00
6565;BME280;3316;44.118;27.258;2024-03-02T05:07:47;100893.28;;;7.97;100.00
6565;BME280;3316;44.118;27.258;2024-03-02T05:10:13;100925.66;;;8.15;100.00
6565;BME280;3316;44.118;27.258;2024-03-02T05:12:39;100921.28;;;8.21;100.00
6565;BME280;3316;44.118;27.258;2024-03-02T05:15:11;100921.28;;;8.20;100.00
6565;BME280;3316;44.118;27.258;2024-03-02T05:17:37;100934.47;;;8.27;100.00
6565;BME280;3316;44.118;27.258;2024-03-02T05:20:06;100933.59;;;8.28;100.00
6565;BME280;3316;44.118;27.258;2024-03-02T05:22:36;100945.84;;;8.32;100.00
6565;BME280;3316;44.118;27.258;2024-03-02T05:25:02;100945.00;;;8.47;100.00
6565;BME280;3316;44.118;27.258;2024-03-02T05:27:27;100939.75;;;8.35;100.00
6565;BME280;3316;44.118;27.258;2024-03-02T05:29:53;100957.25;;;8.42;100.00
6565;BME280;3316;44.118;27.258;2024-03-02T05:32:18;100948.47;;;8.35;100.00
6565;BME280;3316;44.118;27.258;2024-03-02T05:34:44;100897.66;;;8.03;100.00
6565;BME280;3316;44.118;27.258;2024-03-02T05:37:09;100972.13;;;8.55;100.00
6565;BME280;3316;44.118;27.258;2024-03-02T05:39:35;100955.53;;;8.50;100.00
6565;BME280;3316;44.118;27.258;2024-03-02T05:42:00;100984.38;;;8.50;100.00
6565;BME280;3316;44.118;27.258;2024-03-02T05:44:26;100978.25;;;8.48;100.00
6565;BME280;3316;44.118;27.258;2024-03-02T05:46:51;100983.50;;;8.57;100.00
6565;BME280;3316;44.118;27.258;2024-03-02T05:49:17;100984.44;;;8.74;100.00
6565;BME280;3316;44.118;27.258;2024-03-02T05:51:43;100952.06;;;8.61;100.00
6565;BME280;3316;44.118;27.258;2024-03-02T05:54:08;100978.34;;;8.73;100.00
6565;BME280;3316;44.118;27.258;2024-03-02T05:56:35;100949.44;;;8.60;100.00
6565;BME280;3316;44.118;27.258;2024-03-02T05:59:00;100926.63;;;8.39;100.00
6565;BME280;3316;44.118;27.258;2024-03-02T06:01:46;100979.22;;;8.77;100.00
6565;BME280;3316;44.118;27.258;2024-03-02T06:04:13;100978.31;;;8.78;100.00
6565;BME280;3316;44.118;27.258;2024-03-02T06:06:38;100992.34;;;8.81;100.00
6565;BME280;3316;44.118;27.258;2024-03-02T06:09:05;100987.13;;;8.90;100.00
6565;BME280;3316;44.118;27.258;2024-03-02T06:11:33;100973.09;;;8.79;100.00
6565;BME280;3316;44.118;27.258;2024-03-02T06:13:59;100982.72;;;8.85;100.00
6565;BME280;3316;44.118;27.258;2024-03-02T06:16:24;100994.13;;;9.02;100.00
6565;BME280;3316;44.118;27.258;2024-03-02T06:18:50;100978.41;;;8.99;100.00
6565;BME280;3316;44.118;27.258;2024-03-02T06:21:15;100989.75;;;8.99;100.00
6565;BME280;3316;44.118;27.258;2024-03-02T06:23:40;100981.03;;;8.99;100.00
6565;BME280;3316;44.118;27.258;2024-03-02T06:26:06;100981.91;;;9.16;100.00
6565;BME280;3316;44.118;27.258;2024-03-02T06:28:32;100970.53;;;9.08;100.00
6565;BME280;3316;44.118;27.258;2024-03-02T06:30:57;100947.78;;;9.10;100.00
6565;BME280;3316;44.118;27.258;2024-03-02T06:33:22;100965.28;;;8.99;100.00
6565;BME280;3316;44.118;27.258;2024-03-02T06:35:48;100951.22;;;8.89;100.00
6565;BME280;3316;44.118;27.258;2024-03-02T06:38:14;100957.34;;;8.75;100.00
6565;BME280;3316;44.118;27.258;2024-03-02T06:40:39;100945.09;;;8.69;100.00
6565;BME280;3316;44.118;27.258;2024-03-02T06:43:06;100950.34;;;8.77;100.00
6565;BME280;3316;44.118;27.258;2024-03-02T06:45:31;100875.88;;;8.22;100.00
6565;BME280;3316;44.118;27.258;2024-03-02T06:47:59;100940.66;;;8.55;100.00
6565;BME280;3316;44.118;27.258;2024-03-02T06:50:24;100939.78;;;8.53;100.00
6565;BME280;3316;44.118;27.258;2024-03-02T06:52:49;100945.94;;;8.68;100.00
6565;BME280;3316;44.118;27.258;2024-03-02T06:55:15;100921.50;;;8.68;100.00
6565;BME280;3316;44.118;27.258;2024-03-02T06:57:40;100942.50;;;8.98;100.00
6565;BME280;3316;44.118;27.258;2024-03-02T07:00:06;100930.25;;;8.86;100.00
6565;BME280;3316;44.118;27.258;2024-03-02T07:02:34;100922.38;;;8.79;100.00
6565;BME280;3316;44.118;27.258;2024-03-02T07:05:00;100949.50;;;9.05;100.00
6565;BME280;3316;44.118;27.258;2024-03-02T07:07:25;100942.50;;;9.04;100.00
6565;BME280;3316;44.118;27.258;2024-03-02T07:09:51;100947.78;;;9.16;100.00
6565;BME280;3316;44.118;27.258;2024-03-02T07:12:16;100941.63;;;9.05;100.00
6565;BME280;3316;44.118;27.258;2024-03-02T07:14:42;100937.25;;;9.04;100.00
6565;BME280;3316;44.118;27.258;2024-03-02T07:17:27;100940.78;;;9.12;100.00
6565;BME280;3316;44.118;27.258;2024-03-02T07:19:52;100938.13;;;9.21;100.00
6565;BME280;3316;44.118;27.258;2024-03-02T07:22:19;100904.00;;;9.23;100.00
6565;BME280;3316;44.118;27.258;2024-03-02T07:24:44;100918.00;;;9.29;100.00
6565;BME280;3316;44.118;27.258;2024-03-02T07:27:11;100937.25;;;9.21;100.00
6565;BME280;3316;44.118;27.258;2024-03-02T07:29:37;100923.25;;;9.11;100.00
6565;BME280;3316;44.118;27.258;2024-03-02T07:32:03;100928.50;;;9.25;100.00
6565;BME280;3316;44.118;27.258;2024-03-02T07:34:29;100927.63;;;9.33;100.00
6565;BME280;3316;44.118;27.258;2024-03-02T07:36:55;100927.66;;;9.30;100.00
6565;BME280;3316;44.118;27.258;2024-03-02T07:39:20;100924.13;;;9.33;100.00
6565;BME280;3316;44.118;27.258;2024-03-02T07:41:46;100938.13;;;9.42;100.00
6565;BME280;3316;44.118;27.258;2024-03-02T07:44:12;100930.25;;;9.42;100.00
6565;BME280;3316;44.118;27.258;2024-03-02T07:46:44;100931.97;;;9.60;100.00
6565;BME280;3316;44.118;27.258;2024-03-02T07:49:12;100938.13;;;9.59;100.00
6565;BME280;3316;44.118;27.258;2024-03-02T07:51:38;100939.81;;;9.73;100.00
6565;BME280;3316;44.118;27.258;2024-03-02T07:54:03;100933.69;;;9.83;100.00
6565;BME280;3316;44.118;27.258;2024-03-02T07:56:29;100939.78;;;9.98;100.00
6565;BME280;3316;44.118;27.258;2024-03-02T07:58:55;100936.25;;;10.11;100.00
6565;BME280;3316;44.118;27.258;2024-03-02T08:01:22;100944.03;;;10.38;100.00
6565;BME280;3316;44.118;27.258;2024-03-02T08:03:48;100936.19;;;10.29;100.00
6565;BME280;3316;44.118;27.258;2024-03-02T08:06:15;100938.78;;;10.36;100.00
6565;BME280;3316;44.118;27.258;2024-03-02T08:08:41;100928.22;;;10.45;100.00
6565;BME280;3316;44.118;27.258;2024-03-02T08:11:07;100936.84;;;10.71;100.00
6565;BME280;3316;44.118;27.258;2024-03-02T08:13:32;100936.81;;;10.77;100.00
6565;BME280;3316;44.118;27.258;2024-03-02T08:15:58;100935.97;;;10.69;100.00
6565;BME280;3316;44.118;27.258;2024-03-02T08:18:24;100936.84;;;10.74;100.00
6565;BME280;3316;44.118;27.258;2024-03-02T08:20:49;100930.69;;;10.74;100.00
6565;BME280;3316;44.118;27.258;2024-03-02T08:23:15;100931.34;;;11.05;100.00
6565;BME280;3316;44.118;27.258;2024-03-02T08:25:40;100905.03;;;11.03;100.00
6565;BME280;3316;44.118;27.258;2024-03-02T08:28:06;100914.47;;;11.28;100.00
6565;BME280;3316;44.118;27.258;2024-03-02T08:30:31;100902.16;;;11.30;100.00
6565;BME280;3316;44.118;27.258;2024-03-02T08:32:56;100929.81;;;11.80;100.00
6565;BME280;3316;44.118;27.258;2024-03-02T08:35:22;100924.63;;;11.74;100.00
6565;BME280;3316;44.118;27.258;2024-03-02T08:37:48;100923.88;;;11.58;100.00
6565;BME280;3316;44.118;27.258;2024-03-02T08:40:14;100932.25;;;11.99;100.00
6565;BME280;3316;44.118;27.258;2024-03-02T08:42:40;100930.97;;;12.29;100.00
6565;BME280;3316;44.118;27.258;2024-03-02T08:45:07;100937.19;;;12.25;100.00
6565;BME280;3316;44.118;27.258;2024-03-02T08:47:32;100932.75;;;12.30;100.00
6565;BME280;3316;44.118;27.258;2024-03-02T08:49:59;100931.31;;;12.05;100.00
6565;BME280;3316;44.118;27.258;2024-03-02T08:52:25;100929.56;;;12.02;100.00
6565;BME280;3316;44.118;27.258;2024-03-02T08:54:50;100934.34;;;11.67;100.00
6565;BME280;3316;44.118;27.258;2024-03-02T08:57:16;100918.75;;;11.40;100.00
6565;BME280;3316;44.118;27.258;2024-03-02T08:59:41;100941.34;;;11.65;100.00
6565;BME280;3316;44.118;27.258;2024-03-02T09:02:07;100937.63;;;11.89;100.00
6565;BME280;3316;44.118;27.258;2024-03-02T09:04:32;100930.69;;;11.82;100.00
6565;BME280;3316;44.118;27.258;2024-03-02T09:06:58;100941.19;;;11.85;100.00
6565;BME280;3316;44.118;27.258;2024-03-02T09:09:23;100922.88;;;11.71;100.00
6565;BME280;3316;44.118;27.258;2024-03-02T09:11:49;100932.47;;;11.80;100.00
6565;BME280;3316;44.118;27.258;2024-03-02T09:14:15;100931.53;;;11.82;100.00
6565;BME280;3316;44.118;27.258;2024-03-02T09:16:40;100926.94;;;12.02;100.00
6565;BME280;3316;44.118;27.258;2024-03-02T09:19:06;100931.47;;;11.91;100.00
6565;BME280;3316;44.118;27.258;2024-03-02T09:21:31;100884.22;;;11.72;100.00
6565;BME280;3316;44.118;27.258;2024-03-02T09:23:56;100924.84;;;12.28;100.00
6565;BME280;3316;44.118;27.258;2024-03-02T09:26:22;100901.94;;;12.32;100.00
6565;BME280;3316;44.118;27.258;2024-03-02T09:28:50;100940.84;;;12.15;100.00
6565;BME280;3316;44.118;27.258;2024-03-02T09:31:15;100932.94;;;12.15;100.00
6565;BME280;3316;44.118;27.258;2024-03-02T09:33:41;100938.09;;;12.24;100.00
6565;BME280;3316;44.118;27.258;2024-03-02T09:36:17;100911.09;;;12.02;100.00
6565;BME280;3316;44.118;27.258;2024-03-02T09:38:43;100927.53;;;12.24;100.00
6565;BME280;3316;44.118;27.258;2024-03-02T09:41:08;100931.78;;;12.35;100.00
6565;BME280;3316;44.118;27.258;2024-03-02T09:43:34;100919.50;;;12.34;100.00
6565;BME280;3316;44.118;27.258;2024-03-02T09:46:00;100942.78;;;12.69;100.00
6565;BME280;3316;44.118;27.258;2024-03-02T09:48:25;100939.50;;;12.52;100.00
6565;BME280;3316;44.118;27.258;2024-03-02T09:50:51;100930.81;;;12.44;100.00
6565;BME280;3316;44.118;27.258;2024-03-02T09:53:18;100886.97;;;12.34;100.00
6565;BME280;3316;44.118;27.258;2024-03-02T09:55:47;100930.53;;;12.62;100.00
6565;BME280;3316;44.118;27.258;2024-03-02T09:58:12;100928.91;;;12.55;100.00
6565;BME280;3316;44.118;27.258;2024-03-02T10:00:38;100916.63;;;12.51;100.00
6565;BME280;3316;44.118;27.258;2024-03-02T10:03:03;100930.31;;;12.79;100.00
6565;BME280;3316;44.118;27.258;2024-03-02T10:05:30;100926.75;;;12.80;100.00
6565;BME280;3316;44.118;27.258;2024-03-02T10:08:01;100925.31;;;12.59;100.00
6565;BME280;3316;44.118;27.258;2024-03-02T10:10:37;100920.91;;;12.60;100.00
6565;BME280;3316;44.118;27.258;2024-03-02T10:13:07;100914.56;;;12.73;100.00
6565;BME280;3316;44.118;27.258;2024-03-02T10:15:34;100919.78;;;12.77;100.00
6565;BME280;3316;44.118;27.258;2024-03-02T10:17:59;100922.22;;;12.89;100.00
6565;BME280;3316;44.118;27.258;2024-03-02T10:20:26;100870.56;;;12.73;100.00
6565;BME280;3316;44.118;27.258;2024-03-02T10:22:54;100917.53;;;13.09;100.00
6565;BME280;3316;44.118;27.258;2024-03-02T10:25:31;100902.44;;;13.17;100.00
6565;BME280;3316;44.118;27.258;2024-03-02T10:28:00;100898.69;;;13.30;100.00
6565;BME280;3316;44.118;27.258;2024-03-02T10:30:28;100920.16;;;13.63;100.00
6565;BME280;3316;44.118;27.258;2024-03-02T10:32:55;100909.25;;;13.81;100.00
6565;BME280;3316;44.118;27.258;2024-03-02T10:35:22;100906.94;;;14.07;100.00
6565;BME280;3316;44.118;27.258;2024-03-02T10:37:52;100918.03;;;14.24;100.00
6565;BME280;3316;44.118;27.258;2024-03-02T10:40:18;100916.34;;;14.21;100.00
6565;BME280;3316;44.118;27.258;2024-03-02T10:42:46;100914.78;;;14.11;100.00
6565;BME280;3316;44.118;27.258;2024-03-02T10:45:15;100906.69;;;14.19;100.00
6565;BME280;3316;44.118;27.258;2024-03-02T10:47:43;100901.78;;;14.44;100.00
6565;BME280;3316;44.118;27.258;2024-03-02T10:50:09;100896.59;;;14.38;100.00
6565;BME280;3316;44.118;27.258;2024-03-02T10:52:35;100900.19;;;13.91;100.00
6565;BME280;3316;44.118;27.258;2024-03-02T10:55:01;100895.31;;;13.70;100.00
6565;BME280;3316;44.118;27.258;2024-03-02T10:57:35;100884.09;;;13.59;100.00
6565;BME280;3316;44.118;27.258;2024-03-02T11:00:08;100897.19;;;13.65;100.00
6565;BME280;3316;44.118;27.258;2024-03-02T11:02:42;100887.25;;;13.77;100.00
6565;BME280;3316;44.118;27.258;2024-03-02T11:05:26;100889.84;;;13.80;100.00
6565;BME280;3316;44.118;27.258;2024-03-02T11:08:02;100873.28;;;13.69;100.00
6565;BME280;3316;44.118;27.258;2024-03-02T11:10:37;100881.91;;;13.80;100.00
6565;BME280;3316;44.118;27.258;2024-03-02T11:13:09;100881.22;;;13.71;100.00
6565;BME280;3316;44.118;27.258;2024-03-02T11:15:36;100875.00;;;13.72;100.00
6565;BME280;3316;44.118;27.258;2024-03-02T11:18:05;100867.03;;;13.75;100.00
6565;BME280;3316;44.118;27.258;2024-03-02T11:20:37;100862.66;;;13.72;100.00
6565;BME280;3316;44.118;27.258;2024-03-02T11:23:07;100865.69;;;13.53;100.00
6565;BME280;3316;44.118;27.258;2024-03-02T11:25:34;100856.81;;;13.57;100.00
6565;BME280;3316;44.118;27.258;2024-03-02T11:28:01;100845.56;;;13.46;100.00
6565;BME280;3316;44.118;27.258;2024-03-02T11:33:03;100855.78;;;13.64;100.00
6565;BME280;3316;44.118;27.258;2024-03-02T11:35:36;100847.00;;;13.63;100.00
6565;BME280;3316;44.118;27.258;2024-03-02T11:38:03;100852.28;;;13.62;100.00
6565;BME280;3316;44.118;27.258;2024-03-02T11:40:29;100856.19;;;13.88;100.00
6565;BME280;3316;44.118;27.258;2024-03-02T11:42:55;100842.75;;;13.97;100.00
6565;BME280;3316;44.118;27.258;2024-03-02T11:45:27;100854.47;;;14.27;100.00
6565;BME280;3316;44.118;27.258;2024-03-02T11:47:59;100820.72;;;14.38;99.34
6565;BME280;3316;44.118;27.258;2024-03-02T11:50:51;100843.63;;;14.41;98.28
6565;BME280;3316;44.118;27.258;2024-03-02T11:53:18;100835.50;;;14.48;97.50
6565;BME280;3316;44.118;27.258;2024-03-02T11:55:45;100845.34;;;14.42;98.17
6565;BME280;3316;44.118;27.258;2024-03-02T11:58:13;100840.88;;;14.45;96.95
6565;BME280;3316;44.118;27.258;2024-03-02T12:00:39;100832.41;;;14.28;97.08
6565;BME280;3316;44.118;27.258;2024-03-02T12:03:07;100828.13;;;14.21;96.47
6565;BME280;3316;44.118;27.258;2024-03-02T12:05:33;100835.59;;;14.02;98.29
6565;BME280;3316;44.118;27.258;2024-03-02T12:08:04;100834.19;;;14.29;96.90
6565;BME280;3316;44.118;27.258;2024-03-02T12:10:30;100832.69;;;14.14;97.39
6565;BME280;3316;44.118;27.258;2024-03-02T12:12:57;100800.47;;;14.37;94.57
6565;BME280;3316;44.118;27.258;2024-03-02T12:15:27;100832.28;;;14.34;93.44
6565;BME280;3316;44.118;27.258;2024-03-02T12:17:54;100833.34;;;14.25;94.27
6565;BME280;3316;44.118;27.258;2024-03-02T12:20:21;100830.28;;;14.45;94.25
6565;BME280;3316;44.118;27.258;2024-03-02T12:22:49;100831.78;;;14.55;87.92
6565;BME280;3316;44.118;27.258;2024-03-02T12:25:15;100843.03;;;14.65;87.60
6565;BME280;3316;44.118;27.258;2024-03-02T12:27:41;100838.00;;;14.54;84.50
6565;BME280;3316;44.118;27.258;2024-03-02T12:30:07;100828.66;;;14.38;87.00
6565;BME280;3316;44.118;27.258;2024-03-02T12:32:37;100805.50;;;14.06;89.68
6565;BME280;3316;44.118;27.258;2024-03-02T12:35:04;100825.97;;;14.00;89.84
6565;BME280;3316;44.118;27.258;2024-03-02T12:37:30;100840.66;;;14.13;90.55
6565;BME280;3316;44.118;27.258;2024-03-02T12:39:56;100811.72;;;14.05;91.66
6565;BME280;3316;44.118;27.258;2024-03-02T12:42:21;100826.25;;;14.26;89.48
6565;BME280;3316;44.118;27.258;2024-03-02T12:44:46;100833.34;;;14.24;88.50
6565;BME280;3316;44.118;27.258;2024-03-02T12:47:12;100831.44;;;14.32;85.95
6565;BME280;3316;44.118;27.258;2024-03-02T12:49:40;100829.72;;;14.31;85.28
6565;BME280;3316;44.118;27.258;2024-03-02T12:52:06;100835.91;;;14.30;86.63
6565;BME280;3316;44.118;27.258;2024-03-02T12:54:32;100831.59;;;14.24;87.02
6565;BME280;3316;44.118;27.258;2024-03-02T12:56:58;100829.03;;;14.20;87.50
6565;BME280;3316;44.118;27.258;2024-03-02T12:59:24;100829.44;;;14.02;91.54